createdAt,value
2018-06-18T00:01:46.732Z,20.37
2018-06-18T00:06:49.792Z,20.37
2018-06-18T00:11:52.843Z,20.35
2018-06-18T00:16:55.931Z,20.33
2018-06-18T00:21:59.042Z,20.29
2018-06-18T00:27:02.115Z,20.26
2018-06-18T00:32:05.698Z,20.23
2018-06-18T00:37:08.824Z,20.19
2018-06-18T00:42:11.925Z,20.12
2018-06-18T00:47:14.995Z,20.03
2018-06-18T00:52:18.054Z,20.00
2018-06-18T00:57:21.144Z,20.02
2018-06-18T01:02:24.198Z,20.01
2018-06-18T01:07:27.274Z,19.98
2018-06-18T01:12:30.273Z,19.95
2018-06-18T01:17:33.405Z,19.93
2018-06-18T01:22:39.051Z,19.94
2018-06-18T01:27:42.195Z,19.95
2018-06-18T01:32:45.313Z,19.93
2018-06-18T01:37:48.373Z,19.33
2018-06-18T01:42:51.640Z,19.90
2018-06-18T01:47:54.711Z,19.86
2018-06-18T01:52:58.100Z,19.83
2018-06-18T01:58:01.143Z,19.84
2018-06-18T02:03:04.210Z,19.82
2018-06-18T02:08:07.224Z,19.82
2018-06-18T02:13:10.269Z,19.81
2018-06-18T02:18:13.308Z,19.77
2018-06-18T02:23:16.387Z,19.77
2018-06-18T02:28:25.043Z,19.74
2018-06-18T02:33:33.666Z,19.72
2018-06-18T02:38:42.217Z,19.69
2018-06-18T02:43:45.328Z,19.70
2018-06-18T02:48:48.399Z,19.71
2018-06-18T02:53:51.565Z,19.75
2018-06-18T02:58:54.641Z,19.76
2018-06-18T03:03:57.874Z,19.75
2018-06-18T03:09:00.903Z,19.71
2018-06-18T03:14:04.457Z,19.72
2018-06-18T03:19:13.385Z,19.72
2018-06-18T03:24:21.958Z,19.72
2018-06-18T03:29:27.857Z,19.70
2018-06-18T03:34:30.926Z,19.76
2018-06-18T03:39:33.978Z,19.77
2018-06-18T03:44:49.916Z,19.79
2018-06-18T03:49:53.162Z,19.83
2018-06-18T03:54:59.766Z,19.87
2018-06-18T04:00:03.057Z,19.95
2018-06-18T04:05:11.882Z,20.06
2018-06-18T04:10:21.004Z,20.18
2018-06-18T04:15:24.139Z,20.27
2018-06-18T04:20:31.252Z,20.30
2018-06-18T04:25:34.346Z,20.44
2018-06-18T04:30:37.378Z,20.68
2018-06-18T04:35:40.437Z,20.94
2018-06-18T04:40:43.463Z,21.22
2018-06-18T04:45:51.017Z,21.39
2018-06-18T04:50:59.617Z,21.63
2018-06-18T04:56:02.692Z,21.76
2018-06-18T05:01:22.010Z,21.86
2018-06-18T05:06:27.113Z,22.00
2018-06-18T05:11:30.111Z,22.23
2018-06-18T05:16:33.369Z,22.39
2018-06-18T05:21:36.437Z,22.46
2018-06-18T05:26:45.282Z,22.48
2018-06-18T05:31:48.273Z,22.40
2018-06-18T05:36:53.624Z,22.25
2018-06-18T05:41:56.664Z,22.29
2018-06-18T05:46:59.689Z,22.30
2018-06-18T05:52:02.750Z,22.33
2018-06-18T05:57:05.809Z,22.57
2018-06-18T06:02:08.869Z,22.65
2018-06-18T06:07:11.864Z,22.90
2018-06-18T06:12:14.849Z,23.11
2018-06-18T06:17:17.867Z,23.62
2018-06-18T06:22:20.882Z,23.79
2018-06-18T06:27:23.941Z,23.73
2018-06-18T06:32:27.023Z,23.59
2018-06-18T06:37:30.153Z,23.24
2018-06-18T06:42:33.135Z,23.06
2018-06-18T06:47:36.168Z,23.16
2018-06-18T06:52:39.231Z,23.09
2018-06-18T06:57:42.247Z,22.83
2018-06-18T07:02:45.242Z,22.46
2018-06-18T07:07:48.286Z,21.95
2018-06-18T07:12:51.382Z,22.03
2018-06-18T07:17:54.412Z,22.35
2018-06-18T07:22:57.537Z,22.71
2018-06-18T07:28:00.594Z,22.80
2018-06-18T07:33:03.602Z,23.10
2018-06-18T07:38:06.634Z,23.64
2018-06-18T07:43:09.699Z,24.04
2018-06-18T07:48:13.227Z,24.15
2018-06-18T07:53:16.284Z,24.37
2018-06-18T07:58:19.304Z,24.78
2018-06-18T08:03:22.350Z,25.07
2018-06-18T08:08:25.502Z,25.11
2018-06-18T08:13:28.495Z,24.70
2018-06-18T08:18:31.526Z,24.24
2018-06-18T08:23:34.566Z,24.39
2018-06-18T08:28:37.594Z,24.45
2018-06-18T08:33:40.673Z,24.54
2018-06-18T08:38:43.754Z,24.38
2018-06-18T08:43:46.805Z,24.26
2018-06-18T08:48:55.513Z,24.23
2018-06-18T08:54:04.216Z,24.14
2018-06-18T08:59:12.832Z,24.14
2018-06-18T09:04:21.704Z,23.99
2018-06-18T09:09:24.797Z,24.29
2018-06-18T09:14:27.796Z,25.09
2018-06-18T09:19:30.829Z,25.69
2018-06-18T09:24:34.196Z,26.13
2018-06-18T09:29:37.257Z,25.72
2018-06-18T09:34:40.428Z,25.85
2018-06-18T09:39:43.489Z,25.47
2018-06-18T09:44:46.585Z,25.87
2018-06-18T09:49:55.194Z,26.16
2018-06-18T09:55:03.757Z,26.92
2018-06-18T10:00:14.657Z,27.10
2018-06-18T10:05:17.656Z,27.41
2018-06-18T10:10:20.706Z,27.69
2018-06-18T10:15:23.689Z,27.91
2018-06-18T10:20:26.711Z,28.43
2018-06-18T10:25:29.787Z,28.53
2018-06-18T10:30:32.818Z,28.34
2018-06-18T10:35:41.489Z,28.18
2018-06-18T10:40:50.330Z,28.12
2018-06-18T10:45:53.321Z,28.38
2018-06-18T10:50:56.965Z,28.11
2018-06-18T10:56:00.032Z,28.58
2018-06-18T11:01:08.036Z,28.58
2018-06-18T11:06:16.790Z,28.63
2018-06-18T11:11:22.144Z,28.24
2018-06-18T11:16:25.420Z,27.76
2018-06-18T11:21:34.421Z,27.68
2018-06-18T11:26:43.140Z,28.48
2018-06-18T11:31:46.173Z,28.44
2018-06-18T11:36:49.224Z,28.46
2018-06-18T11:41:52.235Z,28.97
2018-06-18T11:46:55.218Z,29.76
2018-06-18T11:51:58.259Z,29.84
2018-06-18T11:57:01.269Z,29.78
2018-06-18T12:02:10.079Z,29.71
2018-06-18T12:07:18.757Z,29.14
2018-06-18T12:12:21.820Z,28.84
2018-06-18T12:17:24.906Z,29.38
2018-06-18T12:22:27.898Z,29.41
2018-06-18T12:27:33.454Z,29.40
2018-06-18T12:32:36.486Z,29.54
2018-06-18T12:37:39.505Z,28.90
2018-06-18T12:42:42.598Z,29.05
2018-06-18T12:47:51.343Z,29.69
2018-06-18T12:52:59.960Z,29.88
2018-06-18T12:58:03.021Z,29.50
2018-06-18T13:03:10.304Z,28.73
2018-06-18T13:08:13.594Z,28.59
2018-06-18T13:13:16.695Z,28.73
2018-06-18T13:18:19.815Z,29.23
2018-06-18T13:23:22.809Z,29.50
2018-06-18T13:28:25.798Z,28.35
2018-06-18T13:33:28.822Z,28.24
2018-06-18T13:38:37.447Z,28.16
2018-06-18T13:43:46.078Z,28.02
2018-06-18T13:48:51.953Z,28.45
2018-06-18T13:53:55.085Z,28.71
2018-06-18T13:58:58.106Z,28.74
2018-06-18T14:04:01.097Z,28.17
2018-06-18T14:09:06.111Z,27.84
2018-06-18T14:14:09.155Z,27.85
2018-06-18T14:19:17.732Z,28.02
2018-06-18T14:24:20.885Z,28.08
2018-06-18T14:29:29.592Z,27.59
2018-06-18T14:34:38.172Z,27.01
2018-06-18T14:39:51.605Z,26.78
2018-06-18T14:44:54.665Z,26.47
2018-06-18T14:49:57.649Z,26.59
2018-06-18T14:55:00.783Z,26.83
2018-06-18T15:00:24.813Z,26.81
2018-06-18T15:05:34.161Z,27.00
2018-06-18T15:10:42.952Z,27.52
2018-06-18T15:16:00.439Z,27.70
2018-06-18T15:21:04.107Z,27.73
2018-06-18T15:26:07.226Z,27.40
2018-06-18T15:31:10.195Z,27.11
2018-06-18T15:36:13.230Z,26.83
2018-06-18T15:41:16.257Z,26.50
2018-06-18T15:46:19.261Z,26.25
2018-06-18T15:51:22.251Z,25.80
2018-06-18T15:56:25.265Z,25.10
2018-06-18T16:01:28.269Z,24.64
2018-06-18T16:06:31.301Z,25.07
2018-06-18T16:11:34.309Z,25.78
2018-06-18T16:16:37.559Z,25.95
2018-06-18T16:21:40.551Z,26.22
2018-06-18T16:26:44.018Z,26.15
2018-06-18T16:31:47.251Z,25.95
2018-06-18T16:36:50.265Z,26.17
2018-06-18T16:41:53.331Z,26.67
2018-06-18T16:46:56.333Z,26.64
2018-06-18T16:51:59.347Z,26.65
2018-06-18T16:57:03.643Z,26.47
2018-06-18T17:02:08.052Z,26.04
2018-06-18T17:07:12.031Z,25.64
2018-06-18T17:12:15.148Z,25.49
2018-06-18T17:17:18.211Z,25.44
2018-06-18T17:22:21.226Z,25.46
2018-06-18T17:27:24.274Z,25.18
2018-06-18T17:32:27.318Z,25.03
2018-06-18T17:37:30.341Z,25.25
2018-06-18T17:42:33.325Z,25.22
2018-06-18T17:47:36.329Z,25.21
2018-06-18T17:52:39.413Z,25.17
2018-06-18T17:57:42.418Z,25.07
2018-06-18T18:02:45.695Z,24.94
2018-06-18T18:07:48.712Z,24.88
2018-06-18T18:12:51.933Z,24.76
2018-06-18T18:17:54.994Z,24.64
2018-06-18T18:22:58.310Z,24.55
2018-06-18T18:28:01.285Z,24.49
2018-06-18T18:33:04.525Z,24.49
2018-06-18T18:38:07.543Z,24.54
2018-06-18T18:43:10.520Z,24.59
2018-06-18T18:48:13.600Z,24.49
2018-06-18T18:53:16.611Z,24.23
2018-06-18T18:59:28.774Z,24.12
2018-06-18T19:05:05.019Z,23.84
2018-06-18T19:10:41.149Z,23.78
2018-06-18T19:15:44.199Z,23.64
2018-06-18T19:20:55.272Z,23.62
2018-06-18T19:25:58.310Z,23.55
2018-06-18T19:31:05.229Z,23.47
2018-06-18T19:36:08.499Z,23.34
2018-06-18T19:41:11.471Z,23.19
2018-06-18T19:46:16.094Z,23.09
2018-06-18T19:51:19.188Z,22.96
2018-06-18T19:56:22.292Z,22.82
2018-06-18T20:01:25.413Z,22.67
2018-06-18T20:06:28.525Z,22.63
2018-06-18T20:11:31.654Z,22.64
2018-06-18T20:16:35.103Z,22.65
2018-06-18T20:21:38.062Z,22.71
2018-06-18T20:26:41.062Z,22.71
2018-06-18T20:31:45.058Z,22.68
2018-06-18T20:36:48.158Z,22.66
2018-06-18T20:41:51.261Z,22.73
2018-06-18T20:46:54.257Z,22.76
2018-06-18T20:51:57.297Z,22.81
2018-06-18T20:57:00.310Z,22.86
2018-06-18T21:02:03.385Z,22.87
2018-06-18T21:07:06.393Z,22.87
2018-06-18T21:12:09.386Z,22.80
2018-06-18T21:17:12.435Z,22.56
2018-06-18T21:22:15.776Z,22.41
2018-06-18T21:27:18.845Z,22.40
2018-06-18T21:32:21.841Z,22.36
2018-06-18T21:37:24.901Z,22.36
2018-06-18T21:42:27.895Z,22.23
2018-06-18T21:47:30.942Z,22.13
2018-06-18T21:52:33.988Z,21.97
2018-06-18T21:57:37.062Z,21.98
2018-06-18T22:02:40.218Z,22.07
2018-06-18T22:07:43.908Z,22.05
2018-06-18T22:12:46.982Z,21.90
2018-06-18T22:17:50.067Z,21.82
2018-06-18T22:22:53.352Z,21.64
2018-06-18T22:27:56.513Z,21.54
2018-06-18T22:32:59.561Z,21.46
2018-06-18T22:38:02.611Z,21.38
2018-06-18T22:43:05.947Z,21.29
2018-06-18T22:48:08.987Z,21.22
2018-06-18T22:53:12.006Z,21.15
2018-06-18T22:58:15.106Z,21.08
2018-06-18T23:03:18.215Z,20.99
2018-06-18T23:08:21.265Z,20.86
2018-06-18T23:13:30.226Z,20.79
2018-06-18T23:18:33.288Z,20.67
2018-06-18T23:23:36.355Z,20.55
2018-06-18T23:28:50.732Z,20.45
2018-06-18T23:33:53.874Z,20.33
2018-06-18T23:38:56.942Z,20.28
2018-06-18T23:43:59.946Z,20.20
2018-06-18T23:49:02.989Z,20.06
2018-06-18T23:54:06.067Z,19.96
2018-06-18T23:59:09.575Z,19.90
